sensor_id;sensor_type;location;lat;lon;timestamp;P1;durP1;ratioP1;P2;durP2;ratioP2
32505;SDS011;18955;51.224;8.482;2023-02-15T00:01:39;4.38;;;2.72;;
32505;SDS011;18955;51.224;8.482;2023-02-15T00:04:06;5.25;;;2.80;;
32505;SDS011;18955;51.224;8.482;2023-02-15T00:06:33;7.35;;;2.83;;
32505;SDS011;18955;51.224;8.482;2023-02-15T00:08:59;4.45;;;2.80;;
32505;SDS011;18955;51.224;8.482;2023-02-15T00:16:32;3.28;;;2.40;;
32505;SDS011;18955;51.224;8.482;2023-02-15T00:18:59;6.50;;;3.13;;
32505;SDS011;18955;51.224;8.482;2023-02-15T00:21:27;7.40;;;3.40;;
32505;SDS011;18955;51.224;8.482;2023-02-15T00:23:58;5.75;;;2.83;;
32505;SDS011;18955;51.224;8.482;2023-02-15T00:26:26;6.50;;;2.70;;
32505;SDS011;18955;51.224;8.482;2023-02-15T00:28:52;5.28;;;2.70;;
32505;SDS011;18955;51.224;8.482;2023-02-15T00:31:20;5.30;;;3.20;;
32505;SDS011;18955;51.224;8.482;2023-02-15T00:33:46;5.55;;;3.17;;
32505;SDS011;18955;51.224;8.482;2023-02-15T00:36:12;7.03;;;3.15;;
32505;SDS011;18955;51.224;8.482;2023-02-15T00:38:40;5.88;;;3.17;;
32505;SDS011;18955;51.224;8.482;2023-02-15T00:41:06;4.78;;;2.80;;
32505;SDS011;18955;51.224;8.482;2023-02-15T00:43:34;5.93;;;3.10;;
32505;SDS011;18955;51.224;8.482;2023-02-15T00:46:02;5.07;;;3.30;;
32505;SDS011;18955;51.224;8.482;2023-02-15T00:48:29;4.28;;;3.00;;
32505;SDS011;18955;51.224;8.482;2023-02-15T00:50:57;4.93;;;2.83;;
32505;SDS011;18955;51.224;8.482;2023-02-15T00:53:25;4.50;;;3.15;;
32505;SDS011;18955;51.224;8.482;2023-02-15T00:55:52;4.47;;;2.95;;
32505;SDS011;18955;51.224;8.482;2023-02-15T00:58:18;4.93;;;3.03;;
32505;SDS011;18955;51.224;8.482;2023-02-15T01:00:45;4.60;;;3.28;;
32505;SDS011;18955;51.224;8.482;2023-02-15T01:03:13;4.47;;;2.97;;
32505;SDS011;18955;51.224;8.482;2023-02-15T01:05:41;4.28;;;2.92;;
32505;SDS011;18955;51.224;8.482;2023-02-15T01:08:07;5.05;;;2.63;;
32505;SDS011;18955;51.224;8.482;2023-02-15T01:10:34;4.65;;;3.22;;
32505;SDS011;18955;51.224;8.482;2023-02-15T01:13:01;4.70;;;3.05;;
32505;SDS011;18955;51.224;8.482;2023-02-15T01:15:28;6.03;;;3.22;;
32505;SDS011;18955;51.224;8.482;2023-02-15T01:17:54;4.97;;;3.08;;
32505;SDS011;18955;51.224;8.482;2023-02-15T01:20:22;6.53;;;3.15;;
32505;SDS011;18955;51.224;8.482;2023-02-15T01:22:50;4.40;;;2.88;;
32505;SDS011;18955;51.224;8.482;2023-02-15T01:25:17;5.35;;;2.40;;
32505;SDS011;18955;51.224;8.482;2023-02-15T01:27:44;5.50;;;3.22;;
32505;SDS011;18955;51.224;8.482;2023-02-15T01:30:12;4.00;;;2.70;;
32505;SDS011;18955;51.224;8.482;2023-02-15T01:32:40;4.18;;;2.55;;
32505;SDS011;18955;51.224;8.482;2023-02-15T01:35:07;4.82;;;2.90;;
32505;SDS011;18955;51.224;8.482;2023-02-15T01:40:04;5.38;;;3.20;;
32505;SDS011;18955;51.224;8.482;2023-02-15T01:42:34;4.00;;;2.63;;
32505;SDS011;18955;51.224;8.482;2023-02-15T01:50:40;6.07;;;3.60;;
32505;SDS011;18955;51.224;8.482;2023-02-15T01:53:14;6.20;;;3.58;;
32505;SDS011;18955;51.224;8.482;2023-02-15T01:55:57;5.60;;;3.20;;
32505;SDS011;18955;51.224;8.482;2023-02-15T01:58:29;5.30;;;3.08;;
32505;SDS011;18955;51.224;8.482;2023-02-15T02:00:59;4.50;;;3.25;;
32505;SDS011;18955;51.224;8.482;2023-02-15T02:03:32;5.32;;;3.58;;
32505;SDS011;18955;51.224;8.482;2023-02-15T02:06:12;6.80;;;3.60;;
32505;SDS011;18955;51.224;8.482;2023-02-15T02:08:39;8.63;;;3.50;;
32505;SDS011;18955;51.224;8.482;2023-02-15T02:11:12;6.43;;;3.47;;
32505;SDS011;18955;51.224;8.482;2023-02-15T02:13:39;5.75;;;3.53;;
32505;SDS011;18955;51.224;8.482;2023-02-15T02:21:58;8.65;;;3.40;;
32505;SDS011;18955;51.224;8.482;2023-02-15T02:35:16;7.00;;;4.07;;
32505;SDS011;18955;51.224;8.482;2023-02-15T02:43:20;6.30;;;3.72;;
32505;SDS011;18955;51.224;8.482;2023-02-15T02:48:48;7.57;;;4.50;;
32505;SDS011;18955;51.224;8.482;2023-02-15T02:51:15;8.45;;;4.85;;
32505;SDS011;18955;51.224;8.482;2023-02-15T02:53:48;11.88;;;5.90;;
32505;SDS011;18955;51.224;8.482;2023-02-15T02:56:27;7.32;;;3.92;;
32505;SDS011;18955;51.224;8.482;2023-02-15T03:01:57;8.73;;;5.28;;
32505;SDS011;18955;51.224;8.482;2023-02-15T03:04:39;9.60;;;4.40;;
32505;SDS011;18955;51.224;8.482;2023-02-15T03:07:24;10.23;;;5.15;;
32505;SDS011;18955;51.224;8.482;2023-02-15T03:09:54;8.65;;;5.55;;
32505;SDS011;18955;51.224;8.482;2023-02-15T03:12:27;7.60;;;4.88;;
32505;SDS011;18955;51.224;8.482;2023-02-15T03:18:20;8.25;;;4.65;;
32505;SDS011;18955;51.224;8.482;2023-02-15T03:20:51;10.70;;;5.00;;
32505;SDS011;18955;51.224;8.482;2023-02-15T03:23:20;9.73;;;5.45;;
32505;SDS011;18955;51.224;8.482;2023-02-15T03:25:53;10.63;;;6.00;;
32505;SDS011;18955;51.224;8.482;2023-02-15T03:28:36;11.32;;;5.40;;
32505;SDS011;18955;51.224;8.482;2023-02-15T03:31:08;7.80;;;4.70;;
32505;SDS011;18955;51.224;8.482;2023-02-15T03:33:38;9.43;;;5.25;;
32505;SDS011;18955;51.224;8.482;2023-02-15T03:38:46;8.05;;;5.28;;
32505;SDS011;18955;51.224;8.482;2023-02-15T03:41:18;9.60;;;5.18;;
32505;SDS011;18955;51.224;8.482;2023-02-15T03:43:58;8.88;;;4.97;;
32505;SDS011;18955;51.224;8.482;2023-02-15T03:46:37;10.63;;;5.10;;
32505;SDS011;18955;51.224;8.482;2023-02-15T03:51:50;10.60;;;5.45;;
32505;SDS011;18955;51.224;8.482;2023-02-15T03:54:24;10.00;;;5.47;;
32505;SDS011;18955;51.224;8.482;2023-02-15T03:57:16;9.13;;;5.57;;
32505;SDS011;18955;51.224;8.482;2023-02-15T04:00:02;12.57;;;5.47;;
32505;SDS011;18955;51.224;8.482;2023-02-15T04:05:57;9.80;;;5.53;;
32505;SDS011;18955;51.224;8.482;2023-02-15T04:08:23;8.88;;;4.55;;
32505;SDS011;18955;51.224;8.482;2023-02-15T04:11:09;9.18;;;4.78;;
32505;SDS011;18955;51.224;8.482;2023-02-15T04:13:35;6.03;;;4.35;;
32505;SDS011;18955;51.224;8.482;2023-02-15T04:16:02;10.38;;;5.70;;
32505;SDS011;18955;51.224;8.482;2023-02-15T04:18:35;9.82;;;6.28;;
32505;SDS011;18955;51.224;8.482;2023-02-15T04:21:24;9.55;;;5.72;;
32505;SDS011;18955;51.224;8.482;2023-02-15T04:24:11;9.57;;;5.80;;
32505;SDS011;18955;51.224;8.482;2023-02-15T04:26:56;14.82;;;5.70;;
32505;SDS011;18955;51.224;8.482;2023-02-15T04:29:24;9.63;;;4.93;;
32505;SDS011;18955;51.224;8.482;2023-02-15T04:31:51;8.30;;;5.28;;
32505;SDS011;18955;51.224;8.482;2023-02-15T04:34:18;13.18;;;5.50;;
32505;SDS011;18955;51.224;8.482;2023-02-15T04:36:45;9.20;;;5.32;;
32505;SDS011;18955;51.224;8.482;2023-02-15T04:39:15;7.60;;;4.25;;
32505;SDS011;18955;51.224;8.482;2023-02-15T04:41:43;9.52;;;5.78;;
32505;SDS011;18955;51.224;8.482;2023-02-15T04:44:10;7.20;;;5.18;;
32505;SDS011;18955;51.224;8.482;2023-02-15T04:46:36;11.63;;;4.95;;
32505;SDS011;18955;51.224;8.482;2023-02-15T04:49:03;9.35;;;5.22;;
32505;SDS011;18955;51.224;8.482;2023-02-15T04:51:29;8.20;;;4.50;;
32505;SDS011;18955;51.224;8.482;2023-02-15T04:53:55;6.93;;;4.30;;
32505;SDS011;18955;51.224;8.482;2023-02-15T04:56:22;9.82;;;5.03;;
32505;SDS011;18955;51.224;8.482;2023-02-15T04:58:48;10.20;;;5.47;;
32505;SDS011;18955;51.224;8.482;2023-02-15T05:01:14;9.07;;;5.13;;
32505;SDS011;18955;51.224;8.482;2023-02-15T05:03:41;8.55;;;4.75;;
32505;SDS011;18955;51.224;8.482;2023-02-15T05:06:07;6.28;;;3.58;;
32505;SDS011;18955;51.224;8.482;2023-02-15T05:08:33;8.85;;;5.10;;
32505;SDS011;18955;51.224;8.482;2023-02-15T05:10:59;9.50;;;4.63;;
32505;SDS011;18955;51.224;8.482;2023-02-15T05:13:26;11.80;;;5.25;;
32505;SDS011;18955;51.224;8.482;2023-02-15T05:15:52;11.98;;;5.97;;
32505;SDS011;18955;51.224;8.482;2023-02-15T05:18:19;9.63;;;5.20;;
32505;SDS011;18955;51.224;8.482;2023-02-15T05:20:46;8.32;;;4.72;;
32505;SDS011;18955;51.224;8.482;2023-02-15T05:23:12;7.55;;;4.40;;
32505;SDS011;18955;51.224;8.482;2023-02-15T05:25:39;8.75;;;4.63;;
32505;SDS011;18955;51.224;8.482;2023-02-15T05:28:26;7.28;;;4.65;;
32505;SDS011;18955;51.224;8.482;2023-02-15T05:33:42;12.10;;;4.57;;
32505;SDS011;18955;51.224;8.482;2023-02-15T05:36:09;9.18;;;5.38;;
32505;SDS011;18955;51.224;8.482;2023-02-15T05:38:36;12.48;;;5.65;;
32505;SDS011;18955;51.224;8.482;2023-02-15T05:41:03;8.55;;;5.22;;
32505;SDS011;18955;51.224;8.482;2023-02-15T05:43:30;10.45;;;4.97;;
32505;SDS011;18955;51.224;8.482;2023-02-15T05:45:57;11.35;;;4.72;;
32505;SDS011;18955;51.224;8.482;2023-02-15T05:48:24;11.63;;;5.40;;
32505;SDS011;18955;51.224;8.482;2023-02-15T05:51:05;10.13;;;5.15;;
32505;SDS011;18955;51.224;8.482;2023-02-15T05:53:33;9.00;;;5.18;;
32505;SDS011;18955;51.224;8.482;2023-02-15T05:56:01;10.13;;;5.03;;
32505;SDS011;18955;51.224;8.482;2023-02-15T05:58:29;9.93;;;4.72;;
32505;SDS011;18955;51.224;8.482;2023-02-15T06:00:57;8.55;;;4.90;;
32505;SDS011;18955;51.224;8.482;2023-02-15T06:03:24;10.00;;;5.20;;
32505;SDS011;18955;51.224;8.482;2023-02-15T06:05:54;11.02;;;4.60;;
32505;SDS011;18955;51.224;8.482;2023-02-15T06:08:20;10.02;;;4.75;;
32505;SDS011;18955;51.224;8.482;2023-02-15T06:10:46;9.85;;;5.15;;
32505;SDS011;18955;51.224;8.482;2023-02-15T06:13:13;10.75;;;5.25;;
32505;SDS011;18955;51.224;8.482;2023-02-15T06:15:39;12.80;;;5.50;;
32505;SDS011;18955;51.224;8.482;2023-02-15T06:18:05;8.40;;;4.97;;
32505;SDS011;18955;51.224;8.482;2023-02-15T06:20:32;6.22;;;3.72;;
32505;SDS011;18955;51.224;8.482;2023-02-15T06:22:58;9.32;;;4.80;;
32505;SDS011;18955;51.224;8.482;2023-02-15T06:25:24;8.90;;;4.65;;
32505;SDS011;18955;51.224;8.482;2023-02-15T06:27:50;7.03;;;3.97;;
32505;SDS011;18955;51.224;8.482;2023-02-15T06:30:17;9.38;;;4.35;;
32505;SDS011;18955;51.224;8.482;2023-02-15T06:32:43;6.55;;;4.28;;
32505;SDS011;18955;51.224;8.482;2023-02-15T06:35:09;6.78;;;4.10;;
32505;SDS011;18955;51.224;8.482;2023-02-15T06:37:37;6.85;;;4.35;;
32505;SDS011;18955;51.224;8.482;2023-02-15T06:40:04;7.10;;;3.80;;
32505;SDS011;18955;51.224;8.482;2023-02-15T06:42:30;9.82;;;4.70;;
32505;SDS011;18955;51.224;8.482;2023-02-15T06:44:57;7.35;;;4.38;;
32505;SDS011;18955;51.224;8.482;2023-02-15T06:47:24;9.05;;;4.75;;
32505;SDS011;18955;51.224;8.482;2023-02-15T06:49:50;8.15;;;4.35;;
32505;SDS011;18955;51.224;8.482;2023-02-15T06:52:16;9.23;;;4.53;;
32505;SDS011;18955;51.224;8.482;2023-02-15T06:54:43;10.27;;;4.07;;
32505;SDS011;18955;51.224;8.482;2023-02-15T06:57:09;8.30;;;4.78;;
32505;SDS011;18955;51.224;8.482;2023-02-15T06:59:35;6.68;;;4.45;;
32505;SDS011;18955;51.224;8.482;2023-02-15T07:02:01;7.82;;;4.57;;
32505;SDS011;18955;51.224;8.482;2023-02-15T07:04:28;7.93;;;4.53;;
32505;SDS011;18955;51.224;8.482;2023-02-15T07:06:55;9.52;;;4.38;;
32505;SDS011;18955;51.224;8.482;2023-02-15T07:09:21;8.43;;;3.42;;
32505;SDS011;18955;51.224;8.482;2023-02-15T07:11:48;5.90;;;3.88;;
32505;SDS011;18955;51.224;8.482;2023-02-15T07:14:33;12.15;;;4.65;;
32505;SDS011;18955;51.224;8.482;2023-02-15T07:16:59;8.60;;;4.38;;
32505;SDS011;18955;51.224;8.482;2023-02-15T07:19:25;7.95;;;4.53;;
32505;SDS011;18955;51.224;8.482;2023-02-15T07:21:51;5.97;;;3.90;;
32505;SDS011;18955;51.224;8.482;2023-02-15T07:24:18;9.73;;;5.05;;
32505;SDS011;18955;51.224;8.482;2023-02-15T07:26:44;6.05;;;3.97;;
32505;SDS011;18955;51.224;8.482;2023-02-15T07:29:10;8.13;;;4.35;;
32505;SDS011;18955;51.224;8.482;2023-02-15T07:31:36;6.80;;;4.45;;
32505;SDS011;18955;51.224;8.482;2023-02-15T07:34:02;6.85;;;4.57;;
32505;SDS011;18955;51.224;8.482;2023-02-15T07:36:30;12.02;;;4.47;;
32505;SDS011;18955;51.224;8.482;2023-02-15T07:38:57;10.23;;;5.00;;
32505;SDS011;18955;51.224;8.482;2023-02-15T07:41:23;8.93;;;4.70;;
32505;SDS011;18955;51.224;8.482;2023-02-15T07:43:49;8.45;;;3.97;;
32505;SDS011;18955;51.224;8.482;2023-02-15T07:46:16;8.73;;;4.68;;
32505;SDS011;18955;51.224;8.482;2023-02-15T07:48:43;6.78;;;4.47;;
32505;SDS011;18955;51.224;8.482;2023-02-15T07:51:10;7.50;;;4.35;;
32505;SDS011;18955;51.224;8.482;2023-02-15T07:53:38;9.52;;;4.70;;
32505;SDS011;18955;51.224;8.482;2023-02-15T07:56:05;11.90;;;5.00;;
32505;SDS011;18955;51.224;8.482;2023-02-15T07:58:35;11.93;;;4.95;;
32505;SDS011;18955;51.224;8.482;2023-02-15T08:01:26;8.43;;;4.40;;
32505;SDS011;18955;51.224;8.482;2023-02-15T08:03:55;10.40;;;5.00;;
32505;SDS011;18955;51.224;8.482;2023-02-15T08:08:49;9.80;;;4.68;;
32505;SDS011;18955;51.224;8.482;2023-02-15T08:11:23;10.05;;;5.28;;
32505;SDS011;18955;51.224;8.482;2023-02-15T08:14:12;10.88;;;4.78;;
32505;SDS011;18955;51.224;8.482;2023-02-15T08:16:39;8.15;;;4.25;;
32505;SDS011;18955;51.224;8.482;2023-02-15T08:19:17;10.35;;;5.13;;
32505;SDS011;18955;51.224;8.482;2023-02-15T08:21:48;8.60;;;4.18;;
32505;SDS011;18955;51.224;8.482;2023-02-15T08:24:17;6.28;;;4.00;;
32505;SDS011;18955;51.224;8.482;2023-02-15T08:26:45;14.20;;;4.95;;
32505;SDS011;18955;51.224;8.482;2023-02-15T08:29:17;9.38;;;4.65;;
32505;SDS011;18955;51.224;8.482;2023-02-15T08:31:44;9.50;;;4.90;;
32505;SDS011;18955;51.224;8.482;2023-02-15T08:34:13;10.00;;;4.38;;
32505;SDS011;18955;51.224;8.482;2023-02-15T08:36:42;6.57;;;4.68;;
32505;SDS011;18955;51.224;8.482;2023-02-15T08:39:10;10.52;;;4.60;;
32505;SDS011;18955;51.224;8.482;2023-02-15T08:41:38;8.07;;;5.07;;
32505;SDS011;18955;51.224;8.482;2023-02-15T08:44:07;7.50;;;4.65;;
32505;SDS011;18955;51.224;8.482;2023-02-15T08:46:35;14.40;;;4.80;;
32505;SDS011;18955;51.224;8.482;2023-02-15T08:49:03;7.07;;;3.70;;
32505;SDS011;18955;51.224;8.482;2023-02-15T08:51:31;8.55;;;4.82;;
32505;SDS011;18955;51.224;8.482;2023-02-15T08:54:00;9.77;;;4.97;;
32505;SDS011;18955;51.224;8.482;2023-02-15T08:56:34;10.95;;;4.90;;
32505;SDS011;18955;51.224;8.482;2023-02-15T08:59:03;9.02;;;5.20;;
32505;SDS011;18955;51.224;8.482;2023-02-15T09:01:31;8.85;;;5.18;;
32505;SDS011;18955;51.224;8.482;2023-02-15T09:04:04;7.70;;;4.75;;
32505;SDS011;18955;51.224;8.482;2023-02-15T09:06:34;9.70;;;5.07;;
32505;SDS011;18955;51.224;8.482;2023-02-15T09:09:02;12.02;;;5.13;;
32505;SDS011;18955;51.224;8.482;2023-02-15T09:11:30;11.10;;;5.35;;
32505;SDS011;18955;51.224;8.482;2023-02-15T09:14:01;9.00;;;4.75;;
32505;SDS011;18955;51.224;8.482;2023-02-15T09:16:32;12.32;;;5.13;;
32505;SDS011;18955;51.224;8.482;2023-02-15T09:19:00;8.23;;;4.50;;
32505;SDS011;18955;51.224;8.482;2023-02-15T09:21:27;8.52;;;4.97;;
32505;SDS011;18955;51.224;8.482;2023-02-15T09:23:58;15.73;;;5.60;;
32505;SDS011;18955;51.224;8.482;2023-02-15T09:26:26;20.30;;;5.70;;
32505;SDS011;18955;51.224;8.482;2023-02-15T09:28:55;11.77;;;5.57;;
32505;SDS011;18955;51.224;8.482;2023-02-15T09:31:24;10.73;;;5.13;;
32505;SDS011;18955;51.224;8.482;2023-02-15T09:33:52;13.27;;;5.15;;
32505;SDS011;18955;51.224;8.482;2023-02-15T09:38:48;11.55;;;5.20;;
32505;SDS011;18955;51.224;8.482;2023-02-15T10:14:22;8.43;;;4.13;;
32505;SDS011;18955;51.224;8.482;2023-02-15T10:22:34;7.75;;;3.47;;
32505;SDS011;18955;51.224;8.482;2023-02-15T10:27:51;5.22;;;3.22;;
32505;SDS011;18955;51.224;8.482;2023-02-15T10:33:02;6.45;;;3.20;;
32505;SDS011;18955;51.224;8.482;2023-02-15T10:38:32;6.38;;;3.53;;
32505;SDS011;18955;51.224;8.482;2023-02-15T10:57:18;5.28;;;2.92;;
32505;SDS011;18955;51.224;8.482;2023-02-15T11:08:26;3.97;;;2.75;;
32505;SDS011;18955;51.224;8.482;2023-02-15T11:10:58;4.95;;;2.92;;
32505;SDS011;18955;51.224;8.482;2023-02-15T11:13:33;8.88;;;3.10;;
32505;SDS011;18955;51.224;8.482;2023-02-15T11:21:31;4.25;;;2.72;;
32505;SDS011;18955;51.224;8.482;2023-02-15T11:24:08;3.80;;;2.60;;
32505;SDS011;18955;51.224;8.482;2023-02-15T11:32:13;4.38;;;3.03;;
32505;SDS011;18955;51.224;8.482;2023-02-15T11:34:59;4.65;;;2.65;;
32505;SDS011;18955;51.224;8.482;2023-02-15T11:37:35;5.75;;;2.40;;
32505;SDS011;18955;51.224;8.482;2023-02-15T11:40:15;5.70;;;2.70;;
32505;SDS011;18955;51.224;8.482;2023-02-15T11:42:47;3.95;;;2.42;;
32505;SDS011;18955;51.224;8.482;2023-02-15T11:47:48;5.25;;;2.88;;
32505;SDS011;18955;51.224;8.482;2023-02-15T11:50:15;6.97;;;2.35;;
32505;SDS011;18955;51.224;8.482;2023-02-15T11:52:48;4.78;;;2.83;;
32505;SDS011;18955;51.224;8.482;2023-02-15T11:55:22;6.63;;;2.65;;
32505;SDS011;18955;51.224;8.482;2023-02-15T11:57:52;5.32;;;2.70;;
32505;SDS011;18955;51.224;8.482;2023-02-15T12:03:02;4.20;;;2.70;;
32505;SDS011;18955;51.224;8.482;2023-02-15T12:05:35;7.75;;;3.40;;
32505;SDS011;18955;51.224;8.482;2023-02-15T12:08:10;7.38;;;3.25;;
32505;SDS011;18955;51.224;8.482;2023-02-15T12:10:40;5.53;;;3.22;;
32505;SDS011;18955;51.224;8.482;2023-02-15T12:13:15;5.80;;;2.88;;
32505;SDS011;18955;51.224;8.482;2023-02-15T12:16:05;4.88;;;3.17;;
32505;SDS011;18955;51.224;8.482;2023-02-15T12:18:37;5.53;;;2.78;;
32505;SDS011;18955;51.224;8.482;2023-02-15T12:21:09;6.93;;;2.67;;
32505;SDS011;18955;51.224;8.482;2023-02-15T12:23:44;8.52;;;3.50;;
32505;SDS011;18955;51.224;8.482;2023-02-15T12:26:14;6.50;;;4.00;;
32505;SDS011;18955;51.224;8.482;2023-02-15T12:28:48;9.63;;;3.00;;
32505;SDS011;18955;51.224;8.482;2023-02-15T12:34:03;6.32;;;3.40;;
32505;SDS011;18955;51.224;8.482;2023-02-15T12:36:54;11.50;;;3.72;;
32505;SDS011;18955;51.224;8.482;2023-02-15T12:39:27;6.05;;;3.75;;
32505;SDS011;18955;51.224;8.482;2023-02-15T12:44:22;5.95;;;2.90;;
32505;SDS011;18955;51.224;8.482;2023-02-15T12:49:26;6.18;;;3.20;;
32505;SDS011;18955;51.224;8.482;2023-02-15T12:51:58;5.40;;;3.40;;
32505;SDS011;18955;51.224;8.482;2023-02-15T12:57:12;5.05;;;3.20;;
32505;SDS011;18955;51.224;8.482;2023-02-15T12:59:58;6.15;;;3.17;;
32505;SDS011;18955;51.224;8.482;2023-02-15T13:05:03;4.65;;;3.15;;
32505;SDS011;18955;51.224;8.482;2023-02-15T13:07:45;6.32;;;3.28;;
32505;SDS011;18955;51.224;8.482;2023-02-15T13:10:23;5.38;;;3.47;;
32505;SDS011;18955;51.224;8.482;2023-02-15T13:12:51;4.53;;;3.03;;
32505;SDS011;18955;51.224;8.482;2023-02-15T13:15:23;6.75;;;3.53;;
32505;SDS011;18955;51.224;8.482;2023-02-15T13:17:54;5.28;;;3.00;;
32505;SDS011;18955;51.224;8.482;2023-02-15T13:20:22;5.32;;;3.03;;
32505;SDS011;18955;51.224;8.482;2023-02-15T13:22:50;5.35;;;2.97;;
32505;SDS011;18955;51.224;8.482;2023-02-15T13:25:20;6.28;;;3.70;;
32505;SDS011;18955;51.224;8.482;2023-02-15T13:27:52;4.65;;;2.63;;
32505;SDS011;18955;51.224;8.482;2023-02-15T13:32:52;5.78;;;3.83;;
32505;SDS011;18955;51.224;8.482;2023-02-15T13:35:23;6.63;;;3.70;;
32505;SDS011;18955;51.224;8.482;2023-02-15T13:38:00;5.85;;;3.22;;
32505;SDS011;18955;51.224;8.482;2023-02-15T13:43:41;9.25;;;4.57;;
32505;SDS011;18955;51.224;8.482;2023-02-15T13:46:17;8.25;;;3.92;;
32505;SDS011;18955;51.224;8.482;2023-02-15T13:48:53;11.18;;;5.63;;
32505;SDS011;18955;51.224;8.482;2023-02-15T13:51:31;9.57;;;3.67;;
32505;SDS011;18955;51.224;8.482;2023-02-15T13:54:49;6.93;;;3.70;;
32505;SDS011;18955;51.224;8.482;2023-02-15T13:59:59;7.75;;;4.55;;
32505;SDS011;18955;51.224;8.482;2023-02-15T14:17:28;6.28;;;3.00;;
32505;SDS011;18955;51.224;8.482;2023-02-15T14:25:38;6.00;;;2.67;;
32505;SDS011;18955;51.224;8.482;2023-02-15T14:28:20;5.70;;;2.83;;
32505;SDS011;18955;51.224;8.482;2023-02-15T14:30:55;3.63;;;2.33;;
32505;SDS011;18955;51.224;8.482;2023-02-15T14:33:37;3.80;;;2.13;;
32505;SDS011;18955;51.224;8.482;2023-02-15T14:36:10;5.80;;;2.75;;
32505;SDS011;18955;51.224;8.482;2023-02-15T14:44:13;5.40;;;2.88;;
32505;SDS011;18955;51.224;8.482;2023-02-15T14:46:44;7.32;;;3.10;;
32505;SDS011;18955;51.224;8.482;2023-02-15T14:49:32;5.35;;;2.67;;
32505;SDS011;18955;51.224;8.482;2023-02-15T14:52:08;4.60;;;2.53;;
32505;SDS011;18955;51.224;8.482;2023-02-15T14:59:38;3.90;;;2.53;;
32505;SDS011;18955;51.224;8.482;2023-02-15T15:02:22;4.03;;;2.53;;
32505;SDS011;18955;51.224;8.482;2023-02-15T15:05:32;2.90;;;2.30;;
32505;SDS011;18955;51.224;8.482;2023-02-15T15:08:01;3.67;;;2.40;;
32505;SDS011;18955;51.224;8.482;2023-02-15T15:10:34;5.85;;;2.50;;
32505;SDS011;18955;51.224;8.482;2023-02-15T15:13:35;4.22;;;2.92;;
32505;SDS011;18955;51.224;8.482;2023-02-15T15:15:56;3.90;;;2.60;;
32505;SDS011;18955;51.224;8.482;2023-02-15T15:21:50;3.88;;;2.55;;
32505;SDS011;18955;51.224;8.482;2023-02-15T15:49:14;5.07;;;2.33;;
32505;SDS011;18955;51.224;8.482;2023-02-15T15:51:42;5.82;;;2.80;;
32505;SDS011;18955;51.224;8.482;2023-02-15T15:54:15;4.15;;;2.72;;
32505;SDS011;18955;51.224;8.482;2023-02-15T15:56:44;5.35;;;2.78;;
32505;SDS011;18955;51.224;8.482;2023-02-15T15:59:26;5.28;;;2.60;;
32505;SDS011;18955;51.224;8.482;2023-02-15T16:01:56;4.32;;;2.75;;
32505;SDS011;18955;51.224;8.482;2023-02-15T16:04:30;7.35;;;3.38;;
32505;SDS011;18955;51.224;8.482;2023-02-15T16:06:58;6.65;;;3.17;;
32505;SDS011;18955;51.224;8.482;2023-02-15T16:09:55;5.60;;;2.25;;
32505;SDS011;18955;51.224;8.482;2023-02-15T16:12:25;6.07;;;2.50;;
32505;SDS011;18955;51.224;8.482;2023-02-15T16:14:56;3.67;;;2.63;;
32505;SDS011;18955;51.224;8.482;2023-02-15T16:17:24;7.70;;;2.97;;
32505;SDS011;18955;51.224;8.482;2023-02-15T16:20:11;3.65;;;2.70;;
32505;SDS011;18955;51.224;8.482;2023-02-15T16:22:48;4.38;;;2.60;;
32505;SDS011;18955;51.224;8.482;2023-02-15T16:25:26;5.05;;;2.40;;
32505;SDS011;18955;51.224;8.482;2023-02-15T16:27:56;6.47;;;3.00;;
32505;SDS011;18955;51.224;8.482;2023-02-15T16:30:32;4.55;;;2.88;;
32505;SDS011;18955;51.224;8.482;2023-02-15T16:33:13;4.78;;;2.72;;
32505;SDS011;18955;51.224;8.482;2023-02-15T16:35:53;5.53;;;2.90;;
32505;SDS011;18955;51.224;8.482;2023-02-15T16:41:10;2.80;;;2.30;;
32505;SDS011;18955;51.224;8.482;2023-02-15T16:43:54;4.05;;;2.40;;
32505;SDS011;18955;51.224;8.482;2023-02-15T16:49:16;7.05;;;2.70;;
32505;SDS011;18955;51.224;8.482;2023-02-15T16:52:01;3.55;;;2.47;;
32505;SDS011;18955;51.224;8.482;2023-02-15T16:54:31;4.47;;;2.70;;
32505;SDS011;18955;51.224;8.482;2023-02-15T16:56:59;11.18;;;3.20;;
32505;SDS011;18955;51.224;8.482;2023-02-15T16:59:41;8.30;;;3.03;;
32505;SDS011;18955;51.224;8.482;2023-02-15T17:02:16;12.30;;;3.67;;
32505;SDS011;18955;51.224;8.482;2023-02-15T17:04:45;8.90;;;3.40;;
32505;SDS011;18955;51.224;8.482;2023-02-15T17:10:36;6.53;;;3.35;;
32505;SDS011;18955;51.224;8.482;2023-02-15T17:15:44;10.43;;;3.83;;
32505;SDS011;18955;51.224;8.482;2023-02-15T17:20:57;10.43;;;3.30;;
32505;SDS011;18955;51.224;8.482;2023-02-15T17:23:30;11.38;;;3.80;;
32505;SDS011;18955;51.224;8.482;2023-02-15T17:26:00;10.70;;;3.85;;
32505;SDS011;18955;51.224;8.482;2023-02-15T17:28:36;11.77;;;4.20;;
32505;SDS011;18955;51.224;8.482;2023-02-15T17:31:06;8.50;;;3.45;;
32505;SDS011;18955;51.224;8.482;2023-02-15T17:38:39;8.45;;;3.60;;
32505;SDS011;18955;51.224;8.482;2023-02-15T17:43:55;9.98;;;4.20;;
32505;SDS011;18955;51.224;8.482;2023-02-15T17:46:22;7.28;;;3.65;;
32505;SDS011;18955;51.224;8.482;2023-02-15T17:48:49;7.47;;;3.90;;
32505;SDS011;18955;51.224;8.482;2023-02-15T17:51:18;7.63;;;4.13;;
32505;SDS011;18955;51.224;8.482;2023-02-15T17:53:46;15.25;;;4.45;;
32505;SDS011;18955;51.224;8.482;2023-02-15T17:56:32;6.68;;;4.38;;
32505;SDS011;18955;51.224;8.482;2023-02-15T17:58:59;11.35;;;5.13;;
32505;SDS011;18955;51.224;8.482;2023-02-15T18:01:25;9.27;;;4.68;;
32505;SDS011;18955;51.224;8.482;2023-02-15T18:04:10;11.63;;;6.13;;
32505;SDS011;18955;51.224;8.482;2023-02-15T18:06:57;13.68;;;5.55;;
32505;SDS011;18955;51.224;8.482;2023-02-15T18:09:42;8.05;;;4.90;;
32505;SDS011;18955;51.224;8.482;2023-02-15T18:12:28;9.60;;;4.93;;
32505;SDS011;18955;51.224;8.482;2023-02-15T18:14:55;16.70;;;8.18;;
32505;SDS011;18955;51.224;8.482;2023-02-15T18:17:24;11.82;;;6.35;;
32505;SDS011;18955;51.224;8.482;2023-02-15T18:19:52;11.25;;;6.40;;
32505;SDS011;18955;51.224;8.482;2023-02-15T18:24:45;13.65;;;7.03;;
32505;SDS011;18955;51.224;8.482;2023-02-15T18:27:13;12.68;;;6.25;;
32505;SDS011;18955;51.224;8.482;2023-02-15T18:29:40;15.43;;;7.97;;
32505;SDS011;18955;51.224;8.482;2023-02-15T18:32:08;14.20;;;8.45;;
32505;SDS011;18955;51.224;8.482;2023-02-15T18:34:40;16.17;;;8.35;;
32505;SDS011;18955;51.224;8.482;2023-02-15T18:37:15;16.60;;;8.30;;
32505;SDS011;18955;51.224;8.482;2023-02-15T18:39:45;16.98;;;8.50;;
32505;SDS011;18955;51.224;8.482;2023-02-15T18:44:45;11.20;;;7.32;;
32505;SDS011;18955;51.224;8.482;2023-02-15T18:47:11;18.85;;;7.50;;
32505;SDS011;18955;51.224;8.482;2023-02-15T18:49:37;13.68;;;7.63;;
32505;SDS011;18955;51.224;8.482;2023-02-15T18:52:03;11.80;;;7.65;;
32505;SDS011;18955;51.224;8.482;2023-02-15T18:54:30;10.93;;;6.93;;
32505;SDS011;18955;51.224;8.482;2023-02-15T18:56:57;12.35;;;7.43;;
32505;SDS011;18955;51.224;8.482;2023-02-15T18:59:26;11.57;;;7.07;;
32505;SDS011;18955;51.224;8.482;2023-02-15T19:01:55;11.98;;;7.30;;
32505;SDS011;18955;51.224;8.482;2023-02-15T19:04:23;15.65;;;7.75;;
32505;SDS011;18955;51.224;8.482;2023-02-15T19:06:49;17.90;;;9.13;;
32505;SDS011;18955;51.224;8.482;2023-02-15T19:09:17;14.30;;;7.95;;
32505;SDS011;18955;51.224;8.482;2023-02-15T19:11:47;21.15;;;10.50;;
32505;SDS011;18955;51.224;8.482;2023-02-15T19:16:56;17.10;;;9.63;;
32505;SDS011;18955;51.224;8.482;2023-02-15T19:19:25;16.65;;;9.20;;
32505;SDS011;18955;51.224;8.482;2023-02-15T19:21:52;12.65;;;8.52;;
32505;SDS011;18955;51.224;8.482;2023-02-15T19:24:20;14.00;;;8.85;;
32505;SDS011;18955;51.224;8.482;2023-02-15T19:26:49;12.27;;;7.60;;